Time;durP1;ratioP1;P1;durP2;ratioP2;P2;SDS_P1;SDS_P2;PMS_P1;PMS_P2;Temp;Humidity;BMP_temperature;BMP_pressure;BME280_temperature;BME280_humidity;BME280_pressure;Samples;Min_cycle;Max_cycle;Signal;HPM_P1;HPM_P2
2021/08/17 00:02:23;;;;;;;;;9.00;9.00;;;;;24.46;60.81;98069.41;6090676;28;96872;-58
2021/08/17 00:05:27;;;;;;;;;8.00;7.60;;;;;24.50;60.88;98062.09;6091012;28;96635;-58
2021/08/17 00:08:31;;;;;;;;;7.00;7.00;;;;;24.38;60.72;98035.25;6077937;28;97815;-59
2021/08/17 00:11:34;;;;;;;;;7.60;7.00;;;;;24.43;60.31;98020.47;6090955;28;97437;-60
2021/08/17 00:14:38;;;;;;;;;8.00;8.00;;;;;24.33;60.51;98018.91;6089948;28;97125;-58
2021/08/17 00:17:42;;;;;;;;;7.00;7.00;;;;;24.40;60.27;98007.34;6090509;28;97577;-61
2021/08/17 00:20:46;;;;;;;;;7.00;7.00;;;;;24.42;60.26;97985.81;6074632;28;96633;-58
2021/08/17 00:23:50;;;;;;;;;9.00;7.20;;;;;24.39;60.50;97979.00;6072303;28;97114;-60
2021/08/17 00:26:53;;;;;;;;;7.00;6.00;;;;;24.40;60.24;97975.09;6090352;28;96999;-60
2021/08/17 00:29:56;;;;;;;;;6.40;6.40;;;;;24.43;59.93;97965.38;6088188;28;96759;-58
2021/08/17 00:33:01;;;;;;;;;7.00;7.00;;;;;24.53;59.93;97976.78;6089882;28;97486;-61
2021/08/17 00:36:05;;;;;;;;;7.00;7.00;;;;;24.58;59.80;97964.78;6089514;28;96708;-60
2021/08/17 00:39:08;;;;;;;;;6.80;6.00;;;;;24.54;59.50;97992.19;6089055;28;97497;-60
2021/08/17 00:42:12;;;;;;;;;6.60;6.00;;;;;24.44;59.31;98002.78;6097896;28;96746;-61
2021/08/17 00:45:20;;;;;;;;;7.75;6.25;;;;;24.52;59.19;98046.84;6093134;28;96571;-61
2021/08/17 00:48:25;;;;;;;;;6.00;6.00;;;;;24.28;59.56;98068.69;6094791;28;97536;-58
2021/08/17 00:51:28;;;;;;;;;6.00;5.00;;;;;24.35;58.41;98081.94;6093600;28;97494;-61
2021/08/17 00:54:32;;;;;;;;;5.00;5.00;;;;;24.18;56.41;98082.81;6093065;28;97713;-60
2021/08/17 00:57:35;;;;;;;;;5.00;5.00;;;;;24.23;55.70;98095.59;6097260;28;96753;-59
2021/08/17 01:00:41;;;;;;;;;5.00;5.00;;;;;24.34;55.29;98105.91;6093943;28;96494;-60
2021/08/17 01:03:52;;;;;;;;;5.00;5.00;;;;;24.32;54.33;98112.91;6093485;28;98017;-62
2021/08/17 01:06:55;;;;;;;;;6.00;5.00;;;;;24.27;53.93;98129.59;6093096;28;97419;-62
2021/08/17 01:09:59;;;;;;;;;4.80;4.00;;;;;24.22;54.29;98138.03;6078264;28;98909;-62
2021/08/17 01:13:02;;;;;;;;;5.00;5.00;;;;;24.12;54.35;98151.00;6093061;28;97221;-60
2021/08/17 01:16:06;;;;;;;;;5.00;5.00;;;;;23.87;54.58;98145.53;6093201;28;96783;-61
2021/08/17 01:19:13;;;;;;;;;5.00;4.20;;;;;23.95;54.91;98128.19;6093656;28;96469;-62
2021/08/17 01:22:17;;;;;;;;;4.50;4.00;;;;;23.93;54.23;98125.78;6092937;28;98119;-61
2021/08/17 01:25:20;;;;;;;;;5.00;4.40;;;;;24.02;54.80;98129.31;6093399;28;97407;-62
2021/08/17 01:28:25;;;;;;;;;8.40;6.40;;;;;24.03;55.08;98128.19;6093223;28;97538;-61
2021/08/17 01:31:30;;;;;;;;;5.00;4.25;;;;;23.90;54.10;98123.66;6093504;28;98831;-60
2021/08/17 01:34:34;;;;;;;;;6.20;6.20;;;;;23.88;54.54;98114.94;6093458;28;96885;-62
2021/08/17 01:37:37;;;;;;;;;7.40;5.00;;;;;23.82;54.32;98105.22;6076148;28;96918;-58
2021/08/17 01:40:40;;;;;;;;;6.00;6.00;;;;;23.85;53.78;98114.78;6093484;28;97785;-60
2021/08/17 01:43:46;;;;;;;;;5.60;5.00;;;;;23.77;54.46;98119.16;6093886;28;97580;-60
2021/08/17 01:46:50;;;;;;;;;4.00;3.80;;;;;23.75;54.72;98124.19;6096687;28;97637;-60
2021/08/17 01:49:53;;;;;;;;;5.00;5.00;;;;;23.68;55.65;98127.44;6092862;28;97507;-61
2021/08/17 01:52:56;;;;;;;;;4.50;4.50;;;;;23.61;55.88;98131.78;6092335;28;97013;-60
2021/08/17 01:56:06;;;;;;;;;6.00;6.00;;;;;23.58;55.88;98135.22;6085454;28;99564;-60
2021/08/17 01:59:13;;;;;;;;;4.00;4.00;;;;;23.40;55.90;98117.06;6071872;28;96810;-62
2021/08/17 02:02:16;;;;;;;;;7.00;5.00;;;;;23.40;55.82;98122.56;6092204;28;97749;-61
2021/08/17 02:05:21;;;;;;;;;5.33;4.00;;;;;23.45;54.98;98125.19;6094414;28;97587;-61
2021/08/17 02:08:25;;;;;;;;;6.00;5.00;;;;;23.29;55.39;98111.06;6098356;28;96668;-60
2021/08/17 02:11:28;;;;;;;;;6.40;6.00;;;;;23.35;55.48;98126.28;6097206;28;97432;-62
2021/08/17 02:14:33;;;;;;;;;5.00;5.00;;;;;23.38;55.53;98135.81;6091381;28;97445;-58
2021/08/17 02:17:37;;;;;;;;;7.00;6.00;;;;;23.31;55.25;98139.06;6068619;28;96805;-61
2021/08/17 02:20:41;;;;;;;;;8.00;7.00;;;;;23.21;55.54;98155.88;6083845;28;96625;-58
2021/08/17 02:23:44;;;;;;;;;8.00;6.80;;;;;23.09;55.95;98144.69;6068633;28;96802;-60
2021/08/17 02:26:47;;;;;;;;;6.00;6.00;;;;;23.11;55.96;98136.94;6068136;28;97049;-60
2021/08/17 02:29:52;;;;;;;;;7.60;7.00;;;;;23.01;56.65;98143.56;6077106;28;97038;-59
2021/08/17 02:32:55;;;;;;;;;8.20;6.80;;;;;23.02;56.63;98134.16;6069595;28;97874;-61
2021/08/17 02:35:58;;;;;;;;;6.00;6.00;;;;;23.07;56.96;98117.53;6072366;28;96686;-61
2021/08/17 02:39:02;;;;;;;;;7.50;7.50;;;;;23.11;56.43;98110.28;6068459;28;97095;-62
2021/08/17 02:42:05;;;;;;;;;8.00;7.00;;;;;23.11;56.51;98120.44;6068627;28;96759;-59
2021/08/17 02:45:11;;;;;;;;;10.00;9.00;;;;;23.07;56.87;98114.78;6067774;28;96702;-61
2021/08/17 02:48:14;;;;;;;;;7.80;7.20;;;;;23.13;56.55;98121.72;6049736;28;97319;-59
2021/08/17 02:51:18;;;;;;;;;7.00;7.00;;;;;23.09;56.90;98140.00;6051614;28;98070;-60
2021/08/17 02:54:21;;;;;;;;;7.00;5.00;;;;;23.05;56.87;98147.28;6054925;28;97727;-60
2021/08/17 02:57:24;;;;;;;;;6.00;5.00;;;;;22.99;56.77;98158.75;6078572;28;97234;-60
2021/08/17 03:00:29;;;;;;;;;6.80;6.80;;;;;22.91;56.96;98146.63;6068414;28;96627;-59
2021/08/17 03:03:33;;;;;;;;;6.00;5.60;;;;;22.88;57.37;98150.81;6066829;28;96853;-61
2021/08/17 03:06:36;;;;;;;;;6.20;5.00;;;;;22.87;57.22;98137.41;6049583;28;96754;-62
2021/08/17 03:09:40;;;;;;;;;6.00;5.00;;;;;22.93;57.09;98138.03;6083264;28;96846;-62
2021/08/17 03:12:43;;;;;;;;;7.00;6.00;;;;;22.95;56.75;98155.03;6055909;28;97241;-60
2021/08/17 03:15:48;;;;;;;;;6.60;6.00;;;;;22.88;56.66;98178.28;6076071;28;97009;-62
2021/08/17 03:18:53;;;;;;;;;7.00;6.00;;;;;22.87;57.08;98159.38;6092286;28;96997;-60
2021/08/17 03:21:56;;;;;;;;;6.50;6.00;;;;;22.95;56.81;98168.78;6097113;28;97512;-60
2021/08/17 03:25:00;;;;;;;;;7.50;5.00;;;;;22.95;56.21;98169.59;6090776;28;97575;-61
2021/08/17 03:28:03;;;;;;;;;5.75;5.75;;;;;22.76;56.31;98138.81;6099156;28;96630;-59
2021/08/17 03:31:08;;;;;;;;;5.00;4.00;;;;;22.87;56.42;98176.66;6090773;28;96742;-60
2021/08/17 03:34:12;;;;;;;;;7.00;6.00;;;;;22.93;57.03;98169.06;6090774;28;96466;-61
2021/08/17 03:37:15;;;;;;;;;8.00;4.20;;;;;22.95;56.59;98168.78;6091398;28;97303;-61
2021/08/17 03:40:22;;;;;;;;;9.00;8.00;;;;;22.96;56.66;98165.72;6089862;28;97471;-61
2021/08/17 03:43:25;;;;;;;;;5.25;5.00;;;;;22.89;56.30;98157.09;6091357;28;97463;-59
2021/08/17 03:46:30;;;;;;;;;7.00;6.40;;;;;23.10;56.10;98180.13;6090115;28;97749;-61
2021/08/17 03:49:34;;;;;;;;;6.25;6.00;;;;;23.07;56.19;98188.19;6090908;28;97550;-59
2021/08/17 03:52:38;;;;;;;;;6.00;5.00;;;;;23.01;56.62;98184.00;6091604;28;96596;-60
2021/08/17 03:55:42;;;;;;;;;5.60;5.20;;;;;23.11;56.74;98190.00;6090572;28;97501;-60
2021/08/17 03:58:45;;;;;;;;;5.40;5.40;;;;;23.18;55.89;98186.75;6077616;28;96604;-61
2021/08/17 04:01:50;;;;;;;;;5.00;5.00;;;;;23.21;56.03;98186.91;6097488;28;97409;-61
2021/08/17 04:04:53;;;;;;;;;5.00;4.60;;;;;23.29;55.79;98188.09;6091105;28;97541;-59
2021/08/17 04:07:57;;;;;;;;;6.60;6.00;;;;;23.28;55.18;98201.03;6088838;28;96589;-60
2021/08/17 04:11:00;;;;;;;;;5.00;5.00;;;;;23.28;55.36;98206.53;6090853;28;97302;-62
2021/08/17 04:14:03;;;;;;;;;5.00;4.00;;;;;23.32;55.31;98218.50;6090591;28;96520;-61
2021/08/17 04:17:11;;;;;;;;;5.00;5.00;;;;;23.34;55.42;98215.44;6078760;28;97718;-61
2021/08/17 04:20:15;;;;;;;;;6.00;6.00;;;;;23.39;55.44;98208.97;6077809;28;98772;-60
2021/08/17 04:23:18;;;;;;;;;5.00;5.00;;;;;23.43;54.70;98204.44;6093502;28;96682;-61
2021/08/17 04:26:22;;;;;;;;;5.00;4.60;;;;;23.30;54.66;98212.53;6093723;28;97024;-62
2021/08/17 04:29:25;;;;;;;;;6.25;6.25;;;;;23.33;55.01;98222.88;6093542;28;97420;-61
2021/08/17 04:32:30;;;;;;;;;6.00;5.60;;;;;23.35;54.75;98230.00;6092693;28;97085;-61
2021/08/17 04:35:33;;;;;;;;;7.75;6.00;;;;;23.33;54.78;98241.31;6093762;28;96540;-62
2021/08/17 04:38:36;;;;;;;;;7.00;5.00;;;;;23.31;55.32;98249.09;6103428;28;98019;-61
2021/08/17 04:41:39;;;;;;;;;5.40;5.00;;;;;23.32;55.46;98258.94;6092997;28;96701;-60
2021/08/17 04:44:43;;;;;;;;;6.75;5.75;;;;;23.31;55.19;98243.59;6078027;28;97012;-61
2021/08/17 04:47:49;;;;;;;;;5.20;5.00;;;;;23.32;55.54;98240.50;6092900;28;96524;-61
2021/08/17 04:50:53;;;;;;;;;5.00;5.00;;;;;23.32;55.28;98236.94;6094396;28;97153;-62
2021/08/17 04:53:56;;;;;;;;;5.00;5.00;;;;;23.35;55.04;98217.06;6093550;28;97260;-59
2021/08/17 04:57:00;;;;;;;;;5.00;5.00;;;;;23.33;55.13;98200.88;6091854;28;97522;-61
2021/08/17 05:00:03;;;;;;;;;8.00;7.00;;;;;23.39;55.25;98195.22;6091772;28;96849;-62
2021/08/17 05:03:08;;;;;;;;;6.00;5.00;;;;;23.39;55.20;98189.72;6095320;28;97521;-62
2021/08/17 05:06:11;;;;;;;;;7.00;6.00;;;;;23.44;55.07;98209.63;6092937;28;97574;-59
2021/08/17 05:09:14;;;;;;;;;6.00;6.00;;;;;23.49;55.51;98215.00;6094010;28;96620;-62
2021/08/17 05:12:18;;;;;;;;;5.20;5.20;;;;;23.51;55.57;98217.41;6092435;28;96509;-61
2021/08/17 05:15:21;;;;;;;;;5.20;5.00;;;;;23.54;54.90;98214.84;6092914;28;97257;-59
2021/08/17 05:18:26;;;;;;;;;5.00;5.00;;;;;23.61;54.74;98212.41;6092835;28;96663;-61
2021/08/17 05:21:29;;;;;;;;;6.20;5.20;;;;;23.62;54.42;98224.22;6093685;28;97673;-61
2021/08/17 05:24:32;;;;;;;;;7.00;6.00;;;;;23.54;54.07;98230.53;6092843;28;97527;-60
2021/08/17 05:27:35;;;;;;;;;5.50;5.00;;;;;23.52;54.23;98233.59;6074580;28;98990;-59
2021/08/17 05:30:39;;;;;;;;;6.40;6.00;;;;;23.45;54.75;98240.72;6094114;28;97055;-62
2021/08/17 05:33:43;;;;;;;;;7.00;5.80;;;;;23.45;54.70;98254.50;6092813;28;97454;-61
2021/08/17 05:36:47;;;;;;;;;6.60;6.00;;;;;23.35;55.25;98255.56;6096573;28;97618;-60
2021/08/17 05:39:50;;;;;;;;;5.80;5.00;;;;;23.32;55.03;98267.19;6092854;28;97000;-62
2021/08/17 05:42:55;;;;;;;;;5.80;5.80;;;;;23.23;55.23;98280.94;6074530;28;97671;-61
2021/08/17 05:46:02;;;;;;;;;5.00;5.00;;;;;23.23;55.39;98275.44;6074574;28;98020;-63
2021/08/17 05:49:07;;;;;;;;;6.00;5.20;;;;;23.17;55.52;98281.38;6092843;28;97519;-60
2021/08/17 05:52:13;;;;;;;;;7.00;5.20;;;;;23.19;56.12;98290.13;6092266;28;98697;-62
2021/08/17 05:55:17;;;;;;;;;6.00;5.00;;;;;23.19;56.13;98290.94;6093070;28;96646;-62
2021/08/17 05:58:20;;;;;;;;;8.00;7.00;;;;;23.13;55.70;98288.66;6088069;28;98862;-59
2021/08/17 06:01:23;;;;;;;;;8.00;7.50;;;;;23.07;56.19;98290.72;6080771;28;97459;-61
2021/08/17 06:04:28;;;;;;;;;7.25;7.00;;;;;22.92;56.24;98290.38;6091679;28;96887;-61
2021/08/17 06:07:31;;;;;;;;;8.00;6.25;;;;;22.94;55.98;98299.91;6092571;28;96603;-61
2021/08/17 06:10:35;;;;;;;;;8.00;7.40;;;;;22.91;56.14;98297.78;6092013;28;97510;-60
2021/08/17 06:13:38;;;;;;;;;9.20;8.00;;;;;22.92;55.96;98299.38;6091020;28;97565;-62
2021/08/17 06:16:42;;;;;;;;;10.00;8.00;;;;;22.86;55.36;98293.25;6090928;28;96694;-63
2021/08/17 06:19:47;;;;;;;;;8.00;7.20;;;;;22.81;54.41;98304.38;6091555;28;97451;-63
2021/08/17 06:22:50;;;;;;;;;13.00;11.00;;;;;22.77;52.18;98306.09;6091788;28;97510;-59
2021/08/17 06:25:53;;;;;;;;;9.00;8.00;;;;;22.74;51.88;98304.00;6074087;28;97075;-61
2021/08/17 06:28:57;;;;;;;;;5.00;4.00;;;;;22.72;51.08;98310.94;6092668;28;97026;-62
2021/08/17 06:32:01;;;;;;;;;6.00;4.00;;;;;22.70;51.52;98307.66;6096623;28;96931;-60
2021/08/17 06:35:08;;;;;;;;;4.00;4.00;;;;;22.59;51.14;98311.78;6094083;28;96880;-61
2021/08/17 06:38:11;;;;;;;;;4.00;4.00;;;;;22.57;51.69;98325.84;6097869;28;96688;-63
2021/08/17 06:41:14;;;;;;;;;4.00;4.00;;;;;22.57;51.71;98319.56;6092427;28;96608;-63
2021/08/17 06:44:17;;;;;;;;;4.00;4.00;;;;;22.54;52.11;98320.16;6091816;28;96795;-60
2021/08/17 06:47:21;;;;;;;;;4.80;3.80;;;;;22.46;52.12;98333.53;6091398;28;97454;-61
2021/08/17 06:50:27;;;;;;;;;5.00;4.00;;;;;22.51;52.34;98338.09;6092036;28;96841;-63
2021/08/17 06:53:30;;;;;;;;;5.00;5.00;;;;;22.48;52.70;98344.19;6093911;28;96820;-60
2021/08/17 06:56:33;;;;;;;;;4.00;4.00;;;;;22.51;52.59;98362.00;6091128;28;97079;-60
2021/08/17 06:59:37;;;;;;;;;5.00;5.00;;;;;22.27;53.47;98348.56;6091913;28;97366;-63
2021/08/17 07:02:40;;;;;;;;;5.80;4.80;;;;;22.37;53.69;98376.63;6102709;28;96701;-59
2021/08/17 07:06:05;;;;;;;;;6.00;6.00;;;;;22.35;53.59;98381.59;6090658;28;97690;-61
2021/08/17 07:09:08;;;;;;;;;7.00;7.00;;;;;22.25;53.19;98361.78;6090867;28;97062;-60
2021/08/17 07:12:12;;;;;;;;;7.00;7.00;;;;;22.24;52.40;98371.97;6090028;28;97531;-60
2021/08/17 07:15:15;;;;;;;;;6.00;5.40;;;;;22.34;52.65;98390.94;6089887;28;96855;-62
2021/08/17 07:18:19;;;;;;;;;4.75;4.75;;;;;22.33;52.57;98383.81;6090904;28;97517;-60
2021/08/17 07:21:24;;;;;;;;;5.00;4.00;;;;;22.32;52.66;98387.72;6090817;28;96591;-61
2021/08/17 07:24:27;;;;;;;;;7.00;6.00;;;;;22.32;53.04;98390.47;6090460;28;97650;-62
2021/08/17 07:27:30;;;;;;;;;7.00;7.00;;;;;22.28;52.75;98408.69;6090300;28;96545;-62
2021/08/17 07:30:33;;;;;;;;;6.00;6.00;;;;;22.16;53.32;98416.63;6090981;28;96501;-61
2021/08/17 07:33:37;;;;;;;;;9.00;9.00;;;;;22.02;53.03;98426.81;6104436;28;97054;-61
2021/08/17 07:36:42;;;;;;;;;10.40;9.00;;;;;21.89;52.99;98436.66;6090394;28;96751;-61
2021/08/17 07:39:45;;;;;;;;;9.00;8.00;;;;;21.65;52.13;98440.75;6087838;28;96598;-61
2021/08/17 07:42:48;;;;;;;;;7.60;7.00;;;;;21.58;52.08;98446.63;6090408;28;96754;-60
2021/08/17 07:45:52;;;;;;;;;6.80;6.80;;;;;21.30;51.84;98458.69;6090194;28;97316;-61
2021/08/17 07:49:16;;;;;;;;;8.00;7.25;;;;;21.15;51.98;98468.00;6091067;28;97362;-62
2021/08/17 07:52:21;;;;;;;;;8.00;7.00;;;;;21.04;52.52;98470.06;6089852;28;96686;-63
2021/08/17 07:55:24;;;;;;;;;6.25;5.00;;;;;21.00;51.52;98470.97;6090515;28;96512;-62
2021/08/17 07:58:28;;;;;;;;;4.00;4.00;;;;;20.89;51.14;98484.00;6090990;28;97828;-60
2021/08/17 08:01:31;;;;;;;;;4.00;3.00;;;;;20.78;50.61;98496.22;6101104;28;97977;-59
2021/08/17 08:04:35;;;;;;;;;4.00;4.00;;;;;20.53;50.10;98502.91;6096767;28;97260;-59
2021/08/17 08:07:40;;;;;;;;;4.00;3.50;;;;;20.35;50.33;98516.56;6072704;28;97546;-61
2021/08/17 08:10:43;;;;;;;;;3.00;2.00;;;;;20.20;50.80;98503.88;6074778;28;96671;-60
2021/08/17 08:13:47;;;;;;;;;3.00;3.00;;;;;20.13;50.01;98525.31;6089875;28;97401;-62
2021/08/17 08:16:51;;;;;;;;;3.00;3.00;;;;;20.19;50.89;98527.69;6072385;28;96952;-62
2021/08/17 08:19:54;;;;;;;;;4.00;3.00;;;;;19.98;50.45;98536.44;6104141;28;97536;-62
2021/08/17 08:22:59;;;;;;;;;3.00;3.00;;;;;20.10;50.55;98531.38;6089735;28;97447;-59
2021/08/17 08:26:03;;;;;;;;;3.00;3.00;;;;;20.02;50.67;98532.03;6090556;28;96777;-60
2021/08/17 08:29:07;;;;;;;;;2.00;2.00;;;;;19.96;50.11;98525.78;6090107;28;97063;-59
2021/08/17 08:32:10;;;;;;;;;2.00;2.00;;;;;20.04;49.71;98538.81;6099245;28;96716;-61
2021/08/17 08:35:13;;;;;;;;;1.60;1.60;;;;;20.14;49.17;98537.88;6090527;28;96661;-59
2021/08/17 08:38:18;;;;;;;;;2.00;2.00;;;;;20.25;48.85;98550.34;6073257;28;98764;-60
2021/08/17 08:41:23;;;;;;;;;3.00;3.00;;;;;20.17;48.40;98553.75;6089675;28;96734;-62
2021/08/17 08:44:26;;;;;;;;;3.60;3.20;;;;;20.27;49.41;98557.16;6089810;28;97626;-62
2021/08/17 08:47:30;;;;;;;;;5.00;4.40;;;;;20.33;49.04;98558.75;6099977;28;97173;-61
2021/08/17 08:50:34;;;;;;;;;3.00;2.40;;;;;20.30;48.50;98559.34;6089777;28;97455;-59
2021/08/17 08:53:39;;;;;;;;;5.00;4.00;;;;;20.38;49.34;98566.06;6089742;28;96514;-61
2021/08/17 08:56:42;;;;;;;;;4.00;4.00;;;;;20.51;48.95;98573.59;6086539;28;97600;-59
2021/08/17 08:59:46;;;;;;;;;5.00;3.00;;;;;20.57;48.24;98569.69;6089493;28;96868;-61
2021/08/17 09:02:51;;;;;;;;;4.00;4.00;;;;;20.56;48.66;98583.66;6074758;28;96911;-63
2021/08/17 09:05:56;;;;;;;;;4.00;4.00;;;;;20.44;49.04;98605.97;6093227;28;97506;-60
2021/08/17 09:09:09;;;;;;;;;5.00;5.00;;;;;20.21;49.29;98555.59;6092960;28;96728;-60
2021/08/17 09:12:12;;;;;;;;;6.00;5.00;;;;;20.40;49.29;98590.44;6094773;28;97470;-61
2021/08/17 09:15:17;;;;;;;;;4.00;4.00;;;;;20.41;49.39;98603.84;6092074;28;97507;-62
2021/08/17 09:18:21;;;;;;;;;5.00;5.00;;;;;20.41;49.39;98609.31;6093516;28;97124;-61
2021/08/17 09:21:38;;;;;;;;;4.00;4.00;;;;;20.28;49.60;98615.47;6092458;28;97095;-63
2021/08/17 09:24:45;;;;;;;;;4.00;4.00;;;;;20.25;49.50;98614.13;6093541;28;96716;-61
2021/08/17 09:27:48;;;;;;;;;4.60;4.00;;;;;20.20;50.28;98610.63;6093477;28;97423;-58
2021/08/17 09:30:51;;;;;;;;;4.00;3.00;;;;;20.23;50.60;98613.59;6092554;28;97189;-61
2021/08/17 09:33:55;;;;;;;;;3.00;3.00;;;;;20.35;50.41;98599.53;6091363;28;99120;-58
2021/08/17 09:37:00;;;;;;;;;4.00;4.00;;;;;20.33;50.76;98603.69;6093531;28;96673;-62
2021/08/17 09:40:07;;;;;;;;;3.75;3.75;;;;;20.33;50.58;98604.47;6104878;28;97386;-59
2021/08/17 09:43:15;;;;;;;;;4.00;4.00;;;;;20.57;50.86;98618.16;6095000;28;96758;-62
2021/08/17 09:46:26;;;;;;;;;6.00;5.00;;;;;20.58;49.54;98606.91;6097640;28;97577;-59
2021/08/17 09:49:30;;;;;;;;;4.20;4.00;;;;;20.74;49.44;98627.50;6092157;28;96493;-58
2021/08/17 09:52:35;;;;;;;;;5.00;5.00;;;;;20.74;49.41;98622.03;6097667;28;97590;-62
2021/08/17 09:55:46;;;;;;;;;5.40;5.00;;;;;20.82;49.14;98628.78;6091140;28;97968;-59
2021/08/17 09:58:49;;;;;;;;;5.00;5.00;;;;;20.82;49.20;98627.97;6067699;28;97779;-60
2021/08/17 10:01:53;;;;;;;;;5.00;4.00;;;;;20.85;49.15;98630.13;6085206;28;97197;-58
2021/08/17 10:04:57;;;;;;;;;5.00;4.00;;;;;20.99;49.34;98633.75;6074152;28;97063;-59
2021/08/17 10:08:01;;;;;;;;;3.00;3.00;;;;;21.09;48.54;98641.84;6091858;28;96555;-62
2021/08/17 10:11:05;;;;;;;;;5.40;4.60;;;;;21.20;48.12;98629.66;6091159;28;97238;-60
2021/08/17 10:14:12;;;;;;;;;4.60;4.00;;;;;21.38;47.96;98649.94;6092027;28;97018;-62
2021/08/17 10:17:15;;;;;;;;;5.00;4.75;;;;;21.42;47.59;98653.72;6090354;28;97629;-60
2021/08/17 10:20:18;;;;;;;;;3.00;3.00;;;;;21.52;46.91;98654.38;6092136;28;97501;-61
2021/08/17 10:23:23;;;;;;;;;7.00;5.40;;;;;21.42;46.13;98653.72;6092035;28;97457;-61
2021/08/17 10:26:30;;;;;;;;;5.00;4.00;;;;;21.48;46.53;98661.56;6092546;28;97443;-60
2021/08/17 10:29:33;;;;;;;;;5.00;5.00;;;;;21.63;46.64;98657.78;6091787;28;97526;-61
2021/08/17 10:32:47;;;;;;;;;2.75;2.75;;;;;21.77;46.58;98657.81;6093882;28;96576;-61
2021/08/17 10:35:55;;;;;;;;;4.00;3.00;;;;;21.97;46.80;98660.25;6091532;28;96730;-58
2021/08/17 10:38:59;;;;;;;;;4.33;4.00;;;;;22.14;45.86;98654.97;6073724;28;97118;-59
2021/08/17 10:42:23;;;;;;;;;4.40;4.40;;;;;22.29;45.28;98664.88;6091601;28;97460;-59
2021/08/17 10:45:28;;;;;;;;;4.00;3.50;;;;;22.30;45.61;98648.09;6091248;28;96765;-61
2021/08/17 10:48:54;;;;;;;;;2.20;2.00;;;;;22.32;45.11;98659.59;6093215;28;98026;-61
2021/08/17 10:51:59;;;;;;;;;3.00;3.00;;;;;22.15;44.57;98680.50;6075303;28;97572;-61
2021/08/17 10:55:40;;;;;;;;;5.00;5.00;;;;;22.11;43.78;98658.34;6092550;28;97276;-59
2021/08/17 10:58:46;;;;;;;;;3.40;3.40;;;;;22.10;43.89;98658.63;6075415;28;96973;-59
2021/08/17 11:01:49;;;;;;;;;3.00;3.00;;;;;22.22;44.63;98651.56;6093000;28;97401;-61
2021/08/17 11:04:53;;;;;;;;;4.20;4.00;;;;;22.27;44.05;98653.38;6091333;28;97191;-61
2021/08/17 11:08:34;;;;;;;;;3.00;2.00;;;;;22.30;44.81;98652.78;6090969;28;98812;-59
2021/08/17 11:11:40;;;;;;;;;3.00;3.00;;;;;22.10;44.11;98599.06;6075088;28;97534;-59
2021/08/17 11:14:46;;;;;;;;;3.00;2.80;;;;;22.57;44.44;98662.97;6077639;28;96709;-58
2021/08/17 11:17:49;;;;;;;;;4.00;3.00;;;;;22.57;43.73;98655.53;6090848;28;96946;-59
2021/08/17 11:20:57;;;;;;;;;3.00;2.60;;;;;22.51;43.62;98669.69;6075638;28;97414;-58
2021/08/17 11:24:09;;;;;;;;;4.33;4.00;;;;;22.64;43.51;98644.13;6090515;28;96806;-60
2021/08/17 11:27:15;;;;;;;;;4.00;3.00;;;;;22.74;43.40;98649.44;6090504;28;96792;-60
2021/08/17 11:30:22;;;;;;;;;4.00;4.00;;;;;22.81;42.58;98645.19;6091310;28;96438;-58
2021/08/17 11:33:25;;;;;;;;;5.00;4.00;;;;;22.99;43.21;98639.84;6091938;28;97494;-60
2021/08/17 11:36:30;;;;;;;;;3.80;3.80;;;;;23.08;42.66;98647.06;6091529;28;98056;-58
2021/08/17 11:39:37;;;;;;;;;3.00;3.00;;;;;23.04;42.72;98640.56;6090775;28;97211;-59
2021/08/17 11:42:42;;;;;;;;;5.25;4.00;;;;;23.20;42.68;98638.28;6090368;28;98599;-58
2021/08/17 11:45:47;;;;;;;;;3.00;3.00;;;;;23.01;42.57;98649.44;6090501;28;96592;-59
2021/08/17 11:48:50;;;;;;;;;3.00;3.00;;;;;23.03;42.90;98647.16;6091076;28;97924;-57
2021/08/17 11:52:06;;;;;;;;;3.00;2.60;;;;;22.98;43.34;98647.28;6090301;28;97548;-57
2021/08/17 11:55:11;;;;;;;;;4.00;4.00;;;;;22.97;43.72;98648.38;6090972;28;97152;-59
2021/08/17 11:58:14;;;;;;;;;5.00;5.00;;;;;23.07;43.59;98650.91;6090070;28;97257;-58
2021/08/17 12:01:25;;;;;;;;;4.00;3.40;;;;;23.06;43.21;98657.56;6089326;28;96501;-60
2021/08/17 12:04:29;;;;;;;;;4.00;4.00;;;;;23.18;43.33;98655.06;6089888;28;97637;-60
2021/08/17 12:07:34;;;;;;;;;6.33;5.00;;;;;23.47;42.89;98649.22;6072833;28;97762;-60
2021/08/17 12:10:39;;;;;;;;;5.00;5.00;;;;;23.71;42.28;98646.16;6090078;28;96578;-60
2021/08/17 12:13:46;;;;;;;;;3.00;3.00;;;;;24.07;42.44;98655.13;6090368;28;96639;-59
2021/08/17 12:16:54;;;;;;;;;4.00;4.00;;;;;24.16;40.61;98652.41;6090493;28;97478;-58
2021/08/17 12:19:57;;;;;;;;;5.00;5.00;;;;;24.48;40.54;98657.63;6090743;28;97005;-59
2021/08/17 12:23:14;;;;;;;;;5.00;5.00;;;;;24.68;39.66;98666.47;6092772;28;96552;-59
2021/08/17 12:26:21;;;;;;;;;2.00;2.00;;;;;24.65;38.42;98669.84;6091172;28;98127;-57
2021/08/17 12:29:25;;;;;;;;;2.00;2.00;;;;;24.87;38.69;98673.38;6090519;28;96726;-57
2021/08/17 12:32:30;;;;;;;;;3.00;2.00;;;;;25.08;38.44;98672.75;6088593;28;97422;-59
2021/08/17 12:35:35;;;;;;;;;4.00;4.00;;;;;24.97;38.15;98677.78;6086556;28;97610;-61
2021/08/17 12:38:40;;;;;;;;;3.00;3.00;;;;;25.11;37.25;98674.88;6091757;28;97803;-61
2021/08/17 12:41:48;;;;;;;;;3.00;3.00;;;;;25.24;36.29;98683.00;6092180;28;97674;-59
2021/08/17 12:44:52;;;;;;;;;3.80;3.80;;;;;25.36;36.93;98674.09;6093661;28;96442;-58
2021/08/17 12:48:02;;;;;;;;;4.00;4.00;;;;;25.21;36.68;98674.56;6094202;28;96730;-60
2021/08/17 12:51:05;;;;;;;;;3.00;3.00;;;;;25.11;36.81;98663.84;6091166;28;98016;-59
2021/08/17 12:54:08;;;;;;;;;4.00;3.00;;;;;24.96;37.32;98684.41;6093755;28;97306;-59
2021/08/17 12:57:12;;;;;;;;;4.00;4.00;;;;;24.79;38.29;98676.88;6094952;28;97397;-60
2021/08/17 13:00:17;;;;;;;;;3.00;3.00;;;;;24.54;38.19;98678.41;6093782;28;97855;-60
2021/08/17 13:03:22;;;;;;;;;4.00;4.00;;;;;24.45;38.61;98671.22;6093008;28;97524;-61
2021/08/17 13:06:25;;;;;;;;;5.60;5.00;;;;;24.29;38.88;98673.56;6094326;28;97422;-60
2021/08/17 13:09:28;;;;;;;;;6.00;5.00;;;;;24.28;39.21;98671.16;6075379;28;96637;-59
2021/08/17 13:12:32;;;;;;;;;4.00;4.00;;;;;24.47;39.27;98672.56;6094254;28;97018;-58
2021/08/17 13:15:36;;;;;;;;;5.40;4.00;;;;;24.60;39.12;98673.56;6092111;28;96593;-60
2021/08/17 13:18:40;;;;;;;;;5.00;4.60;;;;;24.85;38.58;98667.31;6092860;28;96437;-59
2021/08/17 13:21:44;;;;;;;;;5.00;5.00;;;;;24.94;38.61;98665.44;6085695;28;96738;-61
2021/08/17 13:24:49;;;;;;;;;4.00;3.00;;;;;25.08;38.08;98659.78;6093331;28;97457;-58
2021/08/17 13:27:53;;;;;;;;;4.00;4.00;;;;;25.08;37.59;98664.47;6093433;28;97647;-59
2021/08/17 13:30:56;;;;;;;;;4.00;3.25;;;;;25.18;37.30;98656.69;6093538;28;96776;-58
2021/08/17 13:34:01;;;;;;;;;4.20;3.20;;;;;25.24;36.82;98660.13;6093625;28;96799;-59
2021/08/17 13:37:07;;;;;;;;;4.00;4.00;;;;;25.13;36.57;98653.28;6093283;28;97562;-61
2021/08/17 13:40:12;;;;;;;;;4.60;4.00;;;;;25.23;37.18;98670.34;6092523;28;97052;-60
2021/08/17 13:43:16;;;;;;;;;5.00;4.00;;;;;25.22;37.37;98673.41;6092257;28;97639;-59
2021/08/17 13:46:19;;;;;;;;;3.00;3.00;;;;;25.17;37.32;98677.13;6093036;28;96984;-58
2021/08/17 13:49:24;;;;;;;;;3.00;3.00;;;;;25.12;37.99;98671.00;6092403;28;97460;-60
2021/08/17 13:52:27;;;;;;;;;4.00;4.00;;;;;24.95;37.83;98667.06;6092985;28;96737;-59
2021/08/17 13:55:31;;;;;;;;;5.00;4.00;;;;;25.01;38.13;98676.81;6093179;28;97613;-59
2021/08/17 13:58:34;;;;;;;;;5.00;5.00;;;;;24.86;37.89;98670.91;6092324;28;97550;-61
2021/08/17 14:01:38;;;;;;;;;4.00;3.25;;;;;24.91;38.00;98671.59;6092312;28;96616;-61
2021/08/17 14:04:43;;;;;;;;;5.00;4.00;;;;;24.80;38.11;98667.47;6093006;28;96623;-60
2021/08/17 14:07:47;;;;;;;;;5.00;5.00;;;;;24.87;38.29;98675.31;6092788;28;97461;-60
2021/08/17 14:10:51;;;;;;;;;6.00;4.00;;;;;24.71;37.83;98663.06;6091188;28;96662;-60
2021/08/17 14:13:54;;;;;;;;;6.67;6.00;;;;;24.54;38.59;98670.13;6093129;28;97150;-59
2021/08/17 14:16:58;;;;;;;;;4.00;4.00;;;;;24.64;39.17;98671.78;6093635;28;97412;-58
2021/08/17 14:20:04;;;;;;;;;3.00;3.00;;;;;24.50;39.13;98671.09;6091992;28;96491;-61
2021/08/17 14:23:07;;;;;;;;;4.00;4.00;;;;;24.51;39.02;98676.28;6074890;28;97158;-60
2021/08/17 14:26:13;;;;;;;;;4.00;4.00;;;;;24.49;38.40;98670.25;6093797;28;97498;-58
2021/08/17 14:29:16;;;;;;;;;4.40;4.00;;;;;24.48;38.54;98665.88;6091320;28;96873;-58
2021/08/17 14:32:20;;;;;;;;;4.60;4.20;;;;;24.60;38.46;98660.59;6092578;28;97534;-60